Time;durP1;ratioP1;P1;durP2;ratioP2;P2;SDS_P1;SDS_P2;PMS_P1;PMS_P2;Temp;Humidity;BMP_temperature;BMP_pressure;BME280_temperature;BME280_humidity;BME280_pressure;Samples;Min_cycle;Max_cycle;Signal;HPM_P1;HPM_P2
2021/05/31 00:00:52;;;;;;;6.28;4.65;;;10.30;99.90;;;;;;5063673;28;20560;-66
2021/05/31 00:03:19;;;;;;;6.45;5.85;;;10.20;99.90;;;;;;5063434;28;20204;-66
2021/05/31 00:05:46;;;;;;;8.68;6.05;;;10.10;99.90;;;;;;5061437;28;20210;-66
2021/05/31 00:08:13;;;;;;;6.05;5.45;;;10.20;99.90;;;;;;5062064;28;20420;-67
2021/05/31 00:10:40;;;;;;;8.30;5.40;;;10.10;99.90;;;;;;5061587;28;20226;-67
2021/05/31 00:13:07;;;;;;;8.75;6.18;;;10.10;99.90;;;;;;5063578;28;20204;-67
2021/05/31 00:15:34;;;;;;;6.00;5.07;;;10.10;99.90;;;;;;5062545;28;20514;-67
2021/05/31 00:18:01;;;;;;;8.38;6.22;;;10.10;99.90;;;;;;5063099;28;20224;-66
2021/05/31 00:20:29;;;;;;;5.47;4.97;;;10.10;99.90;;;;;;5062223;28;20200;-66
2021/05/31 00:22:56;;;;;;;6.78;5.47;;;10.10;99.90;;;;;;5060694;28;20216;-66
2021/05/31 00:25:24;;;;;;;5.38;4.95;;;10.00;99.90;;;;;;5059229;28;20447;-66
2021/05/31 00:27:52;;;;;;;21.52;6.43;;;10.00;99.90;;;;;;5063599;28;20570;-66
2021/05/31 00:30:22;;;;;;;6.75;5.50;;;10.00;99.90;;;;;;5063553;28;20204;-66
2021/05/31 00:32:51;;;;;;;7.95;6.35;;;9.90;99.90;;;;;;5061806;28;20200;-66
2021/05/31 00:35:19;;;;;;;7.03;6.35;;;9.80;99.90;;;;;;5063835;28;20247;-66
2021/05/31 00:37:46;;;;;;;6.85;6.15;;;9.60;99.90;;;;;;5060928;28;20204;-66
2021/05/31 00:40:15;;;;;;;7.80;7.10;;;9.40;99.90;;;;;;5063941;28;20231;-66
2021/05/31 00:42:42;;;;;;;7.90;6.88;;;9.30;99.90;;;;;;5059935;28;20235;-66
2021/05/31 00:45:10;;;;;;;11.18;9.52;;;9.30;99.90;;;;;;5063686;28;20196;-66
2021/05/31 00:47:37;;;;;;;8.48;7.13;;;9.30;99.90;;;;;;5062129;28;20394;-67
2021/05/31 00:50:05;;;;;;;7.20;6.60;;;9.40;99.90;;;;;;5062482;28;20537;-67
2021/05/31 00:52:32;;;;;;;9.55;8.20;;;9.50;99.90;;;;;;5062168;28;20215;-66
2021/05/31 00:54:59;;;;;;;10.23;9.05;;;9.40;99.90;;;;;;5062604;28;20257;-66
2021/05/31 00:57:27;;;;;;;10.15;7.88;;;9.30;99.90;;;;;;5057219;28;20401;-66
2021/05/31 00:59:54;;;;;;;11.35;7.82;;;9.30;99.90;;;;;;5063123;28;20223;-66
2021/05/31 01:02:22;;;;;;;10.00;8.80;;;9.40;99.90;;;;;;5060122;28;20518;-65
2021/05/31 01:04:49;;;;;;;12.95;9.30;;;9.40;99.90;;;;;;5059276;28;20258;-66
2021/05/31 01:07:42;;;;;;;12.52;8.60;;;9.30;99.90;;;;;;5060056;28;20215;-66
2021/05/31 01:10:34;;;;;;;10.52;8.45;;;9.20;99.90;;;;;;5059461;28;20698;-66
2021/05/31 01:13:04;;;;;;;13.93;11.55;;;9.20;99.90;;;;;;5057510;28;20204;-66
2021/05/31 01:15:47;;;;;;;12.45;9.43;;;9.10;99.90;;;;;;5057564;28;20257;-66
2021/05/31 01:18:26;;;;;;;11.00;9.50;;;9.10;99.90;;;;;;5060191;28;20331;-66
2021/05/31 01:21:24;;;;;;;10.18;8.75;;;9.10;99.90;;;;;;5057774;28;20498;-66
2021/05/31 01:24:02;;;;;;;11.73;9.80;;;9.10;99.90;;;;;;5057696;28;20250;-65
2021/05/31 01:26:42;;;;;;;9.70;8.70;;;9.10;99.90;;;;;;5058271;28;20394;-67
2021/05/31 01:29:12;;;;;;;12.00;9.45;;;9.00;99.90;;;;;;5058139;28;20211;-66
2021/05/31 01:31:52;;;;;;;10.15;8.98;;;9.00;99.90;;;;;;5059120;28;20208;-66
2021/05/31 01:34:23;;;;;;;12.50;9.18;;;9.00;99.90;;;;;;5059660;28;20203;-67
2021/05/31 01:37:02;;;;;;;13.98;8.25;;;9.00;99.90;;;;;;5059903;28;20432;-66
2021/05/31 01:39:32;;;;;;;10.30;8.27;;;8.90;99.90;;;;;;5056636;28;20277;-65
2021/05/31 01:42:00;;;;;;;10.93;8.00;;;8.90;99.90;;;;;;5057891;28;20582;-67
2021/05/31 01:44:27;;;;;;;8.77;7.60;;;8.90;99.90;;;;;;5056420;28;20204;-66
2021/05/31 01:46:55;;;;;;;8.68;7.85;;;8.80;99.90;;;;;;5058602;28;20547;-66
2021/05/31 01:49:22;;;;;;;11.85;8.38;;;8.70;99.90;;;;;;5057765;28;20211;-66
2021/05/31 01:51:50;;;;;;;11.30;8.02;;;8.70;99.90;;;;;;5060205;28;20199;-66
2021/05/31 01:54:19;;;;;;;8.80;7.90;;;8.70;99.90;;;;;;5058535;28;20211;-66
2021/05/31 01:56:49;;;;;;;11.05;9.50;;;8.70;99.90;;;;;;5058925;28;20211;-66
2021/05/31 01:59:20;;;;;;;10.73;8.45;;;8.60;99.90;;;;;;5058082;28;20269;-66
2021/05/31 02:01:49;;;;;;;11.38;9.85;;;8.60;99.90;;;;;;5059579;28;20215;-66
2021/05/31 02:04:16;;;;;;;12.93;10.02;;;8.60;99.90;;;;;;5058339;28;20269;-66
2021/05/31 02:06:44;;;;;;;9.00;7.63;;;8.60;99.90;;;;;;5058725;28;20203;-66
2021/05/31 02:09:11;;;;;;;9.18;8.18;;;8.60;99.90;;;;;;5057255;28;20214;-66
2021/05/31 02:11:59;;;;;;;8.65;7.68;;;8.50;99.90;;;;;;5055810;28;20219;-66
2021/05/31 02:14:58;;;;;;;12.10;9.68;;;8.40;99.90;;;;;;5053191;28;20208;-66
2021/05/31 02:17:40;;;;;;;11.68;9.98;;;8.40;99.90;;;;;;5054275;28;20215;-65
2021/05/31 02:20:11;;;;;;;11.13;9.95;;;8.40;99.90;;;;;;5056004;28;20242;-67
2021/05/31 02:22:44;;;;;;;14.52;9.23;;;8.40;99.90;;;;;;5055837;28;20560;-66
2021/05/31 02:25:13;;;;;;;9.95;8.65;;;8.40;99.90;;;;;;5056681;28;20433;-65
2021/05/31 02:27:43;;;;;;;10.05;8.52;;;8.40;99.90;;;;;;5056752;28;20204;-65
2021/05/31 02:30:11;;;;;;;10.35;8.60;;;8.40;99.90;;;;;;5055642;28;20590;-65
2021/05/31 02:32:49;;;;;;;11.40;10.18;;;8.20;99.90;;;;;;5057142;28;20237;-67
2021/05/31 02:35:17;;;;;;;17.10;10.60;;;8.10;99.90;;;;;;5057587;28;20557;-66
2021/05/31 02:37:44;;;;;;;12.45;9.00;;;8.20;99.90;;;;;;5058177;28;20242;-67
2021/05/31 02:40:12;;;;;;;12.93;10.15;;;8.20;99.90;;;;;;5053466;28;20227;-66
2021/05/31 02:42:41;;;;;;;13.80;10.80;;;8.10;99.90;;;;;;5058218;28;20239;-66
2021/05/31 02:45:09;;;;;;;13.80;10.27;;;8.20;99.90;;;;;;5057164;28;20485;-66
2021/05/31 02:47:37;;;;;;;13.20;10.70;;;8.10;99.90;;;;;;5088198;28;20245;-66
2021/05/31 02:50:05;;;;;;;9.85;8.35;;;8.20;99.90;;;;;;5056698;28;20249;-66
2021/05/31 02:52:33;;;;;;;12.50;9.40;;;8.20;99.90;;;;;;5057603;28;20511;-66
2021/05/31 02:55:00;;;;;;;11.80;10.30;;;8.30;99.90;;;;;;5057891;28;20451;-66
2021/05/31 02:57:27;;;;;;;13.32;10.05;;;8.30;99.90;;;;;;5054866;28;20252;-65
2021/05/31 02:59:54;;;;;;;15.65;11.73;;;8.40;99.90;;;;;;5058109;28;20300;-66
2021/05/31 03:02:22;;;;;;;14.98;11.98;;;8.50;99.90;;;;;;5054959;28;20245;-65
2021/05/31 03:04:49;;;;;;;14.80;11.13;;;8.40;99.90;;;;;;5058338;28;20213;-65
2021/05/31 03:07:16;;;;;;;16.83;11.50;;;8.40;99.90;;;;;;5057442;28;20426;-65
2021/05/31 03:09:43;;;;;;;13.00;10.60;;;8.30;99.90;;;;;;5058037;28;20216;-66
2021/05/31 03:12:11;;;;;;;12.73;10.70;;;8.40;99.90;;;;;;5054275;28;20265;-65
2021/05/31 03:14:39;;;;;;;12.57;9.32;;;8.30;99.90;;;;;;5057499;28;20223;-65
2021/05/31 03:17:06;;;;;;;11.82;10.48;;;8.40;99.90;;;;;;5056933;28;20204;-65
2021/05/31 03:19:33;;;;;;;17.50;11.88;;;8.30;99.90;;;;;;5056623;28;20235;-65
2021/05/31 03:22:00;;;;;;;11.73;9.02;;;8.30;99.90;;;;;;5057883;28;20249;-66
2021/05/31 03:24:27;;;;;;;11.10;9.23;;;8.30;99.90;;;;;;5056446;28;20220;-65
2021/05/31 03:26:54;;;;;;;12.05;9.55;;;8.40;99.90;;;;;;5056938;28;20204;-65
2021/05/31 03:29:21;;;;;;;12.73;10.32;;;8.50;99.90;;;;;;5054664;28;20387;-66
2021/05/31 03:31:48;;;;;;;11.45;10.18;;;8.60;99.90;;;;;;5053592;28;20433;-66
2021/05/31 03:34:15;;;;;;;10.13;8.00;;;8.70;99.90;;;;;;5056201;28;20267;-64
2021/05/31 03:36:42;;;;;;;10.15;9.00;;;8.90;99.90;;;;;;5057386;28;20516;-66
2021/05/31 03:39:09;;;;;;;11.75;9.35;;;9.20;99.90;;;;;;5054507;28;20242;-66
2021/05/31 03:41:36;;;;;;;11.38;9.90;;;9.30;99.90;;;;;;5055456;28;20547;-66
2021/05/31 03:44:04;;;;;;;12.52;9.55;;;9.70;99.90;;;;;;5055815;28;20253;-66
2021/05/31 03:46:31;;;;;;;10.23;8.80;;;9.90;99.90;;;;;;5057274;28;20217;-66
2021/05/31 03:48:58;;;;;;;14.88;10.18;;;10.30;99.90;;;;;;5056677;28;20470;-65
2021/05/31 03:51:25;;;;;;;10.23;9.23;;;10.70;99.90;;;;;;5055631;28;20208;-66
2021/05/31 03:53:52;;;;;;;14.40;9.40;;;10.60;99.90;;;;;;5057083;28;20200;-66
2021/05/31 03:56:19;;;;;;;11.88;9.20;;;10.80;99.90;;;;;;5056688;28;20205;-65
2021/05/31 03:58:47;;;;;;;11.00;8.18;;;11.30;99.90;;;;;;5055833;28;20231;-66
2021/05/31 04:01:16;;;;;;;10.05;8.40;;;11.50;99.90;;;;;;5059107;28;20205;-66
2021/05/31 04:03:43;;;;;;;9.77;8.65;;;11.80;99.90;;;;;;5057344;28;20551;-66
2021/05/31 04:11:40;;;;;;;10.82;8.15;;;11.80;99.90;;;;;;5054763;28;20202;-66
2021/05/31 04:14:08;;;;;;;10.55;8.07;;;11.40;99.90;;;;;;5056454;28;20377;-65
2021/05/31 04:16:37;;;;;;;10.65;7.72;;;11.20;99.90;;;;;;5056087;28;20209;-66
2021/05/31 04:19:06;;;;;;;9.57;7.95;;;11.10;99.90;;;;;;5056027;28;20539;-66
2021/05/31 04:21:34;;;;;;;12.40;9.73;;;11.00;99.90;;;;;;5056577;28;20520;-66
2021/05/31 04:24:02;;;;;;;9.45;8.10;;;11.00;99.90;;;;;;5052845;28;20287;-66
2021/05/31 04:26:30;;;;;;;12.65;9.10;;;11.10;99.90;;;;;;5056884;28;20529;-66
2021/05/31 04:28:57;;;;;;;8.70;7.70;;;11.20;99.90;;;;;;5054460;28;20649;-68
2021/05/31 04:31:24;;;;;;;11.07;9.30;;;11.20;99.90;;;;;;5055671;28;20232;-66
2021/05/31 04:33:52;;;;;;;9.23;8.32;;;11.20;99.90;;;;;;5055136;28;20466;-67
2021/05/31 04:36:19;;;;;;;10.57;7.85;;;11.30;99.90;;;;;;5054875;28;20451;-66
2021/05/31 04:38:46;;;;;;;10.55;8.40;;;11.40;99.90;;;;;;5060197;28;20435;-66
2021/05/31 04:41:13;;;;;;;9.65;8.52;;;11.50;99.90;;;;;;5059530;28;20301;-66
2021/05/31 04:43:40;;;;;;;7.93;7.10;;;11.70;99.90;;;;;;5060646;28;20238;-66
2021/05/31 04:46:07;;;;;;;21.15;9.35;;;11.70;99.90;;;;;;5059616;28;20246;-65
2021/05/31 04:48:35;;;;;;;9.70;7.55;;;11.90;99.90;;;;;;5057770;28;20256;-68
2021/05/31 04:51:02;;;;;;;10.80;7.85;;;12.00;99.90;;;;;;5058476;28;20456;-67
2021/05/31 04:53:31;;;;;;;8.60;7.32;;;12.20;99.90;;;;;;5058187;28;20349;-66
2021/05/31 04:56:02;;;;;;;11.15;9.90;;;12.40;99.90;;;;;;5060306;28;20398;-67
2021/05/31 04:58:29;;;;;;;13.10;7.63;;;12.70;99.90;;;;;;5054626;28;20215;-67
2021/05/31 05:00:56;;;;;;;13.02;7.82;;;12.90;99.90;;;;;;5089536;28;20231;-66
2021/05/31 05:03:23;;;;;;;8.40;7.25;;;13.10;99.90;;;;;;5059497;28;20217;-67
2021/05/31 05:05:50;;;;;;;12.63;10.20;;;13.20;99.90;;;;;;5057783;28;20586;-65
2021/05/31 05:08:17;;;;;;;11.30;8.63;;;13.40;99.90;;;;;;5057898;28;20260;-67
2021/05/31 05:10:45;;;;;;;11.27;9.23;;;13.40;99.90;;;;;;5056633;28;20223;-67
2021/05/31 05:13:12;;;;;;;8.55;7.75;;;13.30;99.90;;;;;;5059645;28;20203;-66
2021/05/31 05:15:40;;;;;;;8.40;7.60;;;13.20;99.90;;;;;;5057127;28;20464;-66
2021/05/31 05:18:07;;;;;;;10.40;6.70;;;13.00;99.90;;;;;;5058308;28;20341;-67
2021/05/31 05:20:34;;;;;;;7.82;6.90;;;13.00;99.90;;;;;;5058775;28;20417;-67
2021/05/31 05:23:02;;;;;;;10.80;7.15;;;13.20;99.90;;;;;;5059651;28;20252;-67
2021/05/31 05:25:49;;;;;;;9.07;7.93;;;13.40;99.90;;;;;;5054600;28;20204;-66
2021/05/31 05:28:16;;;;;;;10.30;7.45;;;13.40;99.90;;;;;;5060554;28;20196;-67
2021/05/31 05:30:43;;;;;;;9.30;8.02;;;13.60;99.90;;;;;;5057486;28;20218;-67
2021/05/31 05:33:10;;;;;;;7.68;6.97;;;13.80;99.90;;;;;;5056736;28;20207;-67
2021/05/31 05:35:41;;;;;;;7.45;6.60;;;13.90;99.90;;;;;;5057320;28;20261;-67
2021/05/31 05:40:57;;;;;;;6.47;5.70;;;14.30;98.30;;;;;;5058191;28;20410;-68
2021/05/31 05:48:46;;;;;;;6.97;6.10;;;14.40;98.50;;;;;;5054636;28;20424;-67
2021/05/31 05:51:13;;;;;;;8.00;6.70;;;14.60;97.90;;;;;;5057434;28;20254;-66
2021/05/31 05:53:42;;;;;;;8.35;5.80;;;14.60;98.30;;;;;;5054458;28;20250;-67
2021/05/31 05:56:16;;;;;;;7.03;6.28;;;14.70;97.60;;;;;;5058535;28;20208;-67
2021/05/31 05:58:43;;;;;;;7.25;6.55;;;14.70;97.40;;;;;;5059114;28;20208;-67
2021/05/31 06:01:11;;;;;;;6.65;6.05;;;15.10;96.80;;;;;;5058257;28;20293;-68
2021/05/31 06:03:39;;;;;;;6.57;6.00;;;15.40;96.60;;;;;;5058758;28;20245;-67
2021/05/31 06:06:07;;;;;;;7.22;6.60;;;15.70;95.90;;;;;;5058657;28;20204;-67
2021/05/31 06:08:36;;;;;;;7.57;6.40;;;15.90;95.50;;;;;;5054167;28;20208;-68
2021/05/31 06:11:04;;;;;;;7.70;6.97;;;16.20;94.50;;;;;;5058176;28;20209;-68
2021/05/31 06:13:31;;;;;;;10.43;6.80;;;16.80;93.50;;;;;;5057146;28;20527;-67
2021/05/31 06:16:02;;;;;;;7.38;6.55;;;17.30;92.50;;;;;;5058629;28;20256;-69
2021/05/31 06:18:29;;;;;;;6.23;5.80;;;17.40;92.10;;;;;;5055799;28;20213;-68
2021/05/31 06:20:57;;;;;;;11.23;6.97;;;17.80;91.40;;;;;;5041505;28;20482;-67
2021/05/31 06:23:25;;;;;;;8.23;7.37;;;18.80;89.60;;;;;;5043667;28;20446;-69
2021/05/31 06:25:52;;;;;;;8.70;7.87;;;19.70;86.60;;;;;;5052807;28;20410;-68
2021/05/31 06:28:19;;;;;;;7.97;7.27;;;20.80;82.90;;;;;;5054115;28;20671;-68
2021/05/31 06:30:47;;;;;;;8.50;7.70;;;20.40;79.00;;;;;;5056117;28;20709;-67
2021/05/31 06:33:16;;;;;;;8.73;7.90;;;19.70;79.60;;;;;;5058006;28;20443;-68
2021/05/31 06:35:43;;;;;;;9.07;8.30;;;20.00;80.90;;;;;;5055943;28;20531;-69
2021/05/31 06:38:12;;;;;;;7.27;6.77;;;20.30;79.20;;;;;;5057367;28;20614;-67
2021/05/31 06:40:39;;;;;;;8.70;8.03;;;20.60;77.10;;;;;;5055516;28;20459;-69
2021/05/31 06:43:07;;;;;;;8.43;7.77;;;21.20;74.50;;;;;;5056502;28;20430;-68
2021/05/31 06:45:34;;;;;;;12.73;7.50;;;22.20;71.80;;;;;;5057680;28;20763;-68
2021/05/31 06:48:03;;;;;;;8.60;8.00;;;22.90;69.80;;;;;;5058072;28;20416;-68
2021/05/31 06:50:32;;;;;;;8.23;7.63;;;23.90;65.70;;;;;;5058081;28;20447;-69
2021/05/31 06:53:01;;;;;;;7.43;6.93;;;23.80;64.30;;;;;;5056511;28;20775;-67
2021/05/31 06:55:33;;;;;;;9.00;8.33;;;24.70;62.00;;;;;;5055434;28;20442;-66
2021/05/31 06:58:00;;;;;;;7.20;6.90;;;26.40;56.00;;;;;;5051577;28;20525;-67
2021/05/31 07:00:28;;;;;;;7.73;7.30;;;27.10;52.10;;;;;;5050477;28;20510;-67
2021/05/31 07:02:56;;;;;;;9.43;7.97;;;28.10;48.90;;;;;;5055187;28;20853;-67
2021/05/31 07:05:23;;;;;;;8.30;7.67;;;29.40;44.90;;;;;;5057098;28;20612;-68
2021/05/31 07:07:52;;;;;;;7.30;7.00;;;29.40;41.20;;;;;;5058098;28;20783;-66
2021/05/31 07:10:23;;;;;;;7.50;7.10;;;29.70;41.80;;;;;;5054926;28;20491;-68
2021/05/31 07:12:51;;;;;;;8.97;8.37;;;29.00;40.30;;;;;;5057816;28;20450;-69
2021/05/31 07:15:19;;;;;;;7.33;6.83;;;30.20;40.10;;;;;;5055169;28;20781;-68
2021/05/31 07:17:47;;;;;;;7.30;6.90;;;30.90;36.50;;;;;;5056584;28;20633;-67
2021/05/31 07:20:21;;;;;;;6.87;6.57;;;30.20;37.30;;;;;;5056447;28;20541;-68
2021/05/31 07:22:49;;;;;;;7.30;6.90;;;29.20;37.60;;;;;;5057428;28;20437;-69
2021/05/31 07:25:18;;;;;;;10.27;9.57;;;27.60;40.40;;;;;;5058253;28;20441;-68
2021/05/31 07:27:46;;;;;;;8.20;7.57;;;27.60;40.90;;;;;;5057480;28;20447;-70
2021/05/31 07:30:18;;;;;;;7.90;7.37;;;27.50;41.90;;;;;;5058090;28;20552;-68
2021/05/31 07:32:45;;;;;;;8.33;7.73;;;27.20;41.90;;;;;;5057352;28;20505;-68
2021/05/31 07:35:12;;;;;;;7.77;7.17;;;28.80;40.40;;;;;;5057851;28;20457;-67
2021/05/31 07:37:39;;;;;;;8.50;7.80;;;28.70;40.40;;;;;;5056762;28;20678;-67
2021/05/31 07:40:11;;;;;;;8.63;8.13;;;29.10;39.80;;;;;;5057616;28;20546;-67
2021/05/31 07:42:38;;;;;;;7.93;7.50;;;27.40;42.60;;;;;;5057526;28;20527;-67
2021/05/31 07:45:07;;;;;;;7.97;7.50;;;27.40;43.10;;;;;;5056994;28;20471;-67
2021/05/31 07:47:35;;;;;;;7.83;7.33;;;26.60;44.30;;;;;;5089831;28;20488;-68
2021/05/31 07:50:05;;;;;;;8.67;8.13;;;27.50;43.90;;;;;;5057926;28;20444;-69
2021/05/31 07:52:32;;;;;;;7.80;7.30;;;29.70;40.40;;;;;;5058140;28;20447;-67
2021/05/31 07:54:59;;;;;;;8.93;8.10;;;29.40;40.40;;;;;;5056603;28;20443;-64
2021/05/31 07:57:26;;;;;;;9.17;8.57;;;30.30;39.20;;;;;;5057679;28;20467;-69
2021/05/31 07:59:53;;;;;;;9.27;8.60;;;31.30;38.10;;;;;;5055683;28;20445;-66
2021/05/31 08:02:23;;;;;;;9.40;8.60;;;32.90;35.80;;;;;;5039926;28;20438;-68
2021/05/31 08:04:50;;;;;;;8.27;7.77;;;31.40;35.90;;;;;;5053763;28;20453;-68
2021/05/31 08:07:17;;;;;;;7.23;6.93;;;29.30;39.00;;;;;;5056959;28;20748;-66
2021/05/31 08:09:45;;;;;;;7.80;7.40;;;30.00;37.50;;;;;;5057386;28;20445;-66
2021/05/31 08:12:12;;;;;;;7.27;6.97;;;32.20;35.70;;;;;;5058560;28;20448;-66
2021/05/31 08:14:40;;;;;;;7.57;7.17;;;33.10;34.10;;;;;;5061299;28;20482;-67
2021/05/31 08:17:07;;;;;;;7.00;6.60;;;31.80;33.40;;;;;;5085805;28;20469;-67
2021/05/31 08:19:34;;;;;;;7.60;7.10;;;30.10;35.00;;;;;;5061060;28;20445;-68
2021/05/31 08:22:04;;;;;;;7.47;7.00;;;30.50;34.30;;;;;;5056740;28;20539;-66
2021/05/31 08:24:32;;;;;;;6.83;6.53;;;30.90;34.20;;;;;;5060706;28;20449;-69
2021/05/31 08:26:59;;;;;;;7.40;7.00;;;29.60;35.70;;;;;;5059988;28;20432;-68
2021/05/31 08:29:26;;;;;;;7.50;6.80;;;28.90;36.60;;;;;;5046560;28;20448;-69
2021/05/31 08:31:53;;;;;;;6.90;6.60;;;29.30;36.00;;;;;;5055136;28;20441;-68
2021/05/31 08:34:23;;;;;;;6.53;6.23;;;30.10;34.30;;;;;;5053956;28;20668;-68
2021/05/31 08:36:50;;;;;;;6.63;6.20;;;30.10;33.70;;;;;;5060044;28;20445;-67
2021/05/31 08:39:17;;;;;;;7.50;6.90;;;28.90;35.60;;;;;;5056463;28;20447;-68
2021/05/31 08:41:44;;;;;;;7.10;6.80;;;29.20;35.40;;;;;;5056344;28;20469;-64
2021/05/31 08:44:12;;;;;;;7.10;6.70;;;29.60;34.20;;;;;;5060561;28;20666;-69
2021/05/31 08:46:39;;;;;;;6.70;6.40;;;28.30;36.80;;;;;;5058931;28;20436;-68
2021/05/31 08:49:07;;;;;;;6.80;6.50;;;28.70;36.50;;;;;;5060555;28;20651;-67
2021/05/31 08:51:36;;;;;;;6.97;6.67;;;29.50;34.80;;;;;;5059933;28;20443;-71
2021/05/31 08:54:04;;;;;;;6.70;6.40;;;29.50;34.90;;;;;;5058772;28;20510;-68
2021/05/31 08:56:32;;;;;;;7.77;7.27;;;30.20;34.20;;;;;;5060345;28;20474;-69
2021/05/31 08:59:00;;;;;;;7.47;6.73;;;28.50;34.50;;;;;;5060633;28;20752;-69
2021/05/31 09:01:27;;;;;;;8.03;7.27;;;28.90;35.60;;;;;;5060392;28;20551;-66
2021/05/31 09:03:57;;;;;;;7.20;6.80;;;29.80;33.80;;;;;;5059295;28;20445;-70
2021/05/31 09:06:26;;;;;;;6.70;6.40;;;27.80;35.30;;;;;;5050828;28;20488;-70
2021/05/31 09:08:55;;;;;;;6.17;5.97;;;27.70;36.50;;;;;;5047435;28;20508;-67
2021/05/31 09:11:25;;;;;;;6.67;6.37;;;27.30;36.60;;;;;;5060822;28;20650;-68
2021/05/31 09:13:52;;;;;;;6.97;6.67;;;27.20;36.40;;;;;;5059528;28;20420;-70
2021/05/31 09:16:24;;;;;;;6.90;6.30;;;26.20;36.80;;;;;;5051331;28;20457;-68
2021/05/31 09:18:59;;;;;;;6.80;6.40;;;26.00;37.20;;;;;;5048014;28;20467;-66
2021/05/31 09:21:38;;;;;;;6.23;5.93;;;26.00;36.00;;;;;;5043985;28;20530;-69
2021/05/31 09:24:08;;;;;;;6.07;5.70;;;24.80;38.10;;;;;;5045128;28;20633;-68
2021/05/31 09:26:48;;;;;;;6.40;6.10;;;25.70;38.00;;;;;;5059364;28;20768;-68
2021/05/31 09:29:17;;;;;;;5.83;5.60;;;26.70;32.50;;;;;;5042422;28;20788;-68
2021/05/31 09:31:45;;;;;;;6.30;5.90;;;26.80;33.60;;;;;;5049306;28;20453;-69
2021/05/31 09:34:13;;;;;;;6.63;5.97;;;25.20;36.60;;;;;;5057780;28;20445;-68
2021/05/31 09:36:51;;;;;;;5.57;5.37;;;23.30;37.40;;;;;;5047823;28;20456;-69
2021/05/31 09:39:30;;;;;;;5.97;5.57;;;22.10;39.70;;;;;;5043049;28;20439;-69
2021/05/31 09:42:11;;;;;;;5.23;5.03;;;21.40;39.10;;;;;;5040009;28;20493;-67
2021/05/31 09:44:42;;;;;;;5.53;5.27;;;20.80;40.90;;;;;;5057870;28;20441;-69
2021/05/31 09:47:10;;;;;;;5.03;4.83;;;20.60;38.50;;;;;;5059042;28;20447;-69
2021/05/31 09:49:39;;;;;;;5.27;5.07;;;20.00;37.90;;;;;;5056646;28;20445;-69
2021/05/31 09:52:12;;;;;;;5.83;5.53;;;19.60;37.90;;;;;;5056240;28;20470;-69
2021/05/31 09:54:45;;;;;;;5.07;4.80;;;19.50;40.90;;;;;;5058937;28;20488;-70
2021/05/31 09:57:29;;;;;;;6.00;5.60;;;19.50;42.60;;;;;;5053989;28;20642;-69
2021/05/31 10:00:00;;;;;;;5.70;5.50;;;19.40;43.60;;;;;;5059894;28;20945;-70
2021/05/31 10:02:58;;;;;;;5.43;5.23;;;19.30;44.60;;;;;;5057359;28;20488;-69
2021/05/31 10:10:38;;;;;;;5.33;5.10;;;19.40;49.20;;;;;;5039849;28;20972;-68
2021/05/31 10:13:05;;;;;;;5.90;5.50;;;19.40;49.80;;;;;;5039865;28;20655;-71
2021/05/31 10:15:41;;;;;;;4.77;4.50;;;19.50;50.20;;;;;;5053053;28;20453;-69
2021/05/31 10:18:10;;;;;;;6.30;5.90;;;19.50;50.40;;;;;;5040923;28;20456;-68
2021/05/31 10:20:37;;;;;;;5.23;5.03;;;19.40;50.30;;;;;;5039223;28;20463;-68
2021/05/31 10:23:09;;;;;;;5.00;4.80;;;19.20;51.20;;;;;;5051165;28;20460;-70
2021/05/31 10:25:40;;;;;;;5.50;5.30;;;19.10;52.50;;;;;;5057432;28;20423;-68
2021/05/31 10:28:10;;;;;;;5.70;5.50;;;18.90;53.30;;;;;;5059156;28;20423;-69
2021/05/31 10:30:49;;;;;;;5.20;5.00;;;18.90;52.90;;;;;;5090232;28;20469;-69
2021/05/31 10:33:19;;;;;;;5.37;5.17;;;18.80;53.90;;;;;;5050210;28;20426;-71
2021/05/31 10:35:47;;;;;;;5.40;5.10;;;18.90;53.90;;;;;;5052544;28;20464;-70
2021/05/31 10:38:21;;;;;;;5.10;4.90;;;19.00;53.20;;;;;;5038168;28;20492;-68
2021/05/31 10:40:54;;;;;;;5.37;4.87;;;19.30;53.80;;;;;;5036851;28;20463;-67
2021/05/31 10:43:23;;;;;;;6.30;5.80;;;19.20;54.40;;;;;;5047073;28;20426;-69
2021/05/31 10:46:01;;;;;;;7.30;5.87;;;18.90;53.90;;;;;;5058870;28;20426;-68
2021/05/31 10:48:31;;;;;;;5.27;4.97;;;18.40;55.10;;;;;;5057782;28;20418;-70
2021/05/31 10:51:10;;;;;;;6.23;5.73;;;18.50;54.90;;;;;;5058516;28;20810;-69
2021/05/31 10:53:38;;;;;;;5.67;5.47;;;18.50;55.10;;;;;;5045486;28;20452;-69
2021/05/31 10:56:10;;;;;;;6.83;6.40;;;18.90;55.60;;;;;;5057145;28;20411;-68
2021/05/31 10:58:40;;;;;;;6.00;5.70;;;19.30;55.70;;;;;;5054224;28;20423;-68
2021/05/31 11:01:13;;;;;;;6.30;5.90;;;19.50;54.90;;;;;;5051860;28;20514;-69
2021/05/31 11:03:55;;;;;;;6.10;5.80;;;20.00;54.30;;;;;;5053872;28;20445;-70
2021/05/31 11:06:24;;;;;;;6.00;5.60;;;20.00;54.50;;;;;;5058188;28;20433;-69
2021/05/31 11:09:02;;;;;;;6.83;6.27;;;19.80;55.30;;;;;;5054222;28;20658;-70
2021/05/31 11:11:34;;;;;;;5.83;5.63;;;19.20;55.30;;;;;;5054751;28;20669;-66
2021/05/31 11:14:02;;;;;;;6.40;6.00;;;19.20;57.20;;;;;;5051915;28;20783;-69
2021/05/31 11:16:33;;;;;;;6.00;5.50;;;19.70;55.20;;;;;;5057188;28;20755;-68
2021/05/31 11:19:06;;;;;;;6.13;5.73;;;20.00;53.80;;;;;;5054028;28;20448;-69
2021/05/31 11:21:42;;;;;;;5.60;5.40;;;19.90;55.30;;;;;;5055051;28;20465;-70
2021/05/31 11:24:10;;;;;;;6.33;6.00;;;19.80;56.00;;;;;;5051711;28;20460;-67
2021/05/31 11:26:39;;;;;;;5.93;5.60;;;20.00;55.40;;;;;;5057439;28;20453;-69
2021/05/31 11:29:08;;;;;;;5.53;5.23;;;20.00;55.20;;;;;;5057062;28;20472;-68
2021/05/31 11:31:37;;;;;;;6.70;6.33;;;20.10;54.80;;;;;;5089879;28;20457;-67
2021/05/31 11:34:05;;;;;;;6.20;5.87;;;20.20;55.40;;;;;;5055741;28;20444;-69
2021/05/31 11:36:40;;;;;;;6.73;6.23;;;20.40;54.50;;;;;;5058665;28;20514;-68
2021/05/31 11:39:17;;;;;;;6.13;5.83;;;20.30;54.40;;;;;;5043330;28;20415;-69
2021/05/31 11:41:44;;;;;;;5.97;5.67;;;20.30;54.90;;;;;;5049418;28;20840;-69
2021/05/31 11:44:31;;;;;;;6.20;5.80;;;19.80;56.40;;;;;;5039039;28;20626;-69
2021/05/31 11:47:01;;;;;;;6.50;6.20;;;19.50;57.40;;;;;;5048609;28;20534;-68
2021/05/31 11:49:30;;;;;;;5.87;5.57;;;19.10;58.10;;;;;;5036184;28;20822;-68
2021/05/31 11:52:09;;;;;;;6.23;5.80;;;19.20;57.00;;;;;;5043033;28;20431;-68
2021/05/31 11:54:41;;;;;;;5.90;5.50;;;19.70;57.30;;;;;;5055862;28;20449;-69
2021/05/31 11:57:21;;;;;;;6.17;5.77;;;20.30;56.40;;;;;;5056996;28;20403;-68
2021/05/31 11:59:55;;;;;;;5.93;5.63;;;20.60;55.00;;;;;;5056784;28;20645;-67
2021/05/31 12:02:27;;;;;;;5.53;5.13;;;20.10;54.40;;;;;;5056911;28;20462;-69
2021/05/31 12:04:55;;;;;;;5.20;4.90;;;19.40;55.90;;;;;;5053463;28;20666;-68
2021/05/31 12:07:24;;;;;;;6.07;5.57;;;19.00;56.60;;;;;;5057061;28;20477;-68
2021/05/31 12:09:54;;;;;;;5.60;5.30;;;19.00;57.30;;;;;;5055825;28;20612;-67
2021/05/31 12:12:24;;;;;;;5.20;4.90;;;19.10;56.40;;;;;;5053830;28;20426;-69
2021/05/31 12:14:55;;;;;;;5.47;5.27;;;19.40;55.50;;;;;;5043115;28;20443;-69
2021/05/31 12:17:25;;;;;;;5.40;5.13;;;19.70;55.60;;;;;;5057490;28;20510;-68
2021/05/31 12:19:53;;;;;;;5.60;5.30;;;19.90;55.10;;;;;;5057046;28;20448;-68
2021/05/31 12:22:24;;;;;;;5.10;4.90;;;20.50;53.50;;;;;;5056706;28;20981;-69
2021/05/31 12:24:55;;;;;;;5.07;4.87;;;20.50;52.10;;;;;;5057370;28;20444;-69
2021/05/31 12:27:26;;;;;;;5.47;5.20;;;20.70;53.20;;;;;;5056596;28;20444;-68
2021/05/31 12:29:54;;;;;;;5.60;5.30;;;20.30;52.30;;;;;;5056773;28;20423;-68
2021/05/31 12:32:23;;;;;;;5.43;5.13;;;20.10;52.90;;;;;;5056594;28;20791;-68
2021/05/31 12:34:51;;;;;;;5.30;5.00;;;19.70;52.10;;;;;;5057769;28;20450;-69
2021/05/31 12:37:30;;;;;;;6.47;5.90;;;19.70;53.20;;;;;;5056582;28;20450;-70
2021/05/31 12:40:02;;;;;;;6.60;4.73;;;19.50;53.00;;;;;;5068247;28;20566;-70
2021/05/31 12:42:31;;;;;;;5.60;5.20;;;19.30;53.20;;;;;;5056405;28;20530;-70
2021/05/31 12:45:05;;;;;;;5.33;5.10;;;19.50;51.60;;;;;;5043647;28;20433;-67
2021/05/31 12:47:35;;;;;;;4.80;4.60;;;19.80;51.60;;;;;;5057102;28;20423;-71
2021/05/31 12:50:06;;;;;;;5.57;5.27;;;20.00;50.20;;;;;;5056924;28;20472;-70
2021/05/31 12:52:38;;;;;;;4.87;4.57;;;20.30;49.30;;;;;;5056286;28;20482;-68
2021/05/31 12:55:11;;;;;;;5.43;5.13;;;20.30;49.30;;;;;;5053306;28;20746;-68
2021/05/31 12:57:40;;;;;;;4.90;4.70;;;19.80;50.80;;;;;;5049999;28;20440;-68
2021/05/31 13:00:14;;;;;;;5.53;5.13;;;19.50;51.30;;;;;;5055329;28;20426;-68
2021/05/31 13:02:46;;;;;;;4.63;4.43;;;19.50;51.30;;;;;;5052513;28;20458;-69
2021/05/31 13:05:15;;;;;;;4.20;4.00;;;19.60;51.70;;;;;;5048000;28;20606;-68
2021/05/31 13:07:50;;;;;;;4.30;4.20;;;19.80;51.40;;;;;;5060538;28;20437;-68
2021/05/31 13:10:21;;;;;;;4.97;4.70;;;20.00;51.30;;;;;;5059683;28;20419;-68
2021/05/31 13:12:59;;;;;;;4.60;4.40;;;20.40;50.90;;;;;;5060222;28;20452;-66
2021/05/31 13:15:41;;;;;;;5.53;5.03;;;20.00;51.50;;;;;;5046883;28;20444;-67
2021/05/31 13:18:22;;;;;;;4.70;4.50;;;19.70;52.50;;;;;;5060048;28;20581;-68